Time;durP1;ratioP1;P1;durP2;ratioP2;P2;SDS_P1;SDS_P2;PMS_P1;PMS_P2;Temp;Humidity;BMP_temperature;BMP_pressure;BME280_temperature;BME280_humidity;BME280_pressure;Samples;Min_cycle;Max_cycle;Signal;HPM_P1;HPM_P2
2021/07/14 00:00:58;;;;;;;7.50;6.20;;;;;;;14.35;100.00;99961.97;4967265;28;20096;-69
2021/07/14 00:03:42;;;;;;;10.30;7.00;;;;;;;14.25;100.00;99955.13;4995360;28;20065;-69
2021/07/14 00:06:26;;;;;;;7.82;6.60;;;;;;;14.20;100.00;99957.53;4980889;28;20109;-69
2021/07/14 00:09:10;;;;;;;10.18;5.75;;;;;;;14.15;100.00;99946.44;4980776;28;20053;-68
2021/07/14 00:11:59;;;;;;;8.20;5.28;;;;;;;14.08;100.00;99943.63;4967117;28;20049;-69
2021/07/14 00:22:04;;;;;;;11.73;6.20;;;;;;;13.96;100.00;99936.16;4995574;28;20096;-68
2021/07/14 00:23:52;;;;;;;10.57;7.72;;;;;;;13.92;100.00;99938.34;4982701;28;20049;-69
2021/07/14 00:26:35;;;;;;;8.45;7.20;;;;;;;13.89;100.00;99927.97;4966570;28;20112;-69
2021/07/14 00:29:19;;;;;;;11.77;6.00;;;;;;;13.84;100.00;99918.78;4995514;28;20046;-69
2021/07/14 00:32:04;;;;;;;6.72;5.32;;;;;;;13.76;100.00;99911.59;4979917;28;20104;-68
2021/07/14 00:34:48;;;;;;;9.23;6.47;;;;;;;13.73;100.00;99911.09;4980046;28;20356;-69
2021/07/14 00:37:32;;;;;;;6.53;5.78;;;;;;;13.67;100.00;99911.81;4980476;28;20085;-68
2021/07/14 00:40:16;;;;;;;11.18;6.43;;;;;;;13.64;100.00;99896.06;4994709;28;20101;-69
2021/07/14 00:43:00;;;;;;;8.45;5.93;;;;;;;13.60;100.00;99890.25;4966333;28;20089;-69
2021/07/14 00:45:44;;;;;;;8.93;6.05;;;;;;;13.58;100.00;99888.75;4980064;28;20057;-68
2021/07/14 00:48:28;;;;;;;11.85;6.85;;;;;;;13.56;100.00;99899.63;4980338;28;20517;-69
2021/07/14 00:51:12;;;;;;;8.52;7.43;;;;;;;13.65;100.00;99898.59;4980080;28;20081;-68
2021/07/14 00:53:58;;;;;;;19.38;10.68;;;;;;;13.78;100.00;99898.03;4979781;28;20510;-68
2021/07/14 00:56:42;;;;;;;12.43;7.88;;;;;;;13.85;100.00;99899.00;4966534;28;20510;-69
2021/07/14 00:59:26;;;;;;;14.77;8.43;;;;;;;13.89;100.00;99889.63;4966293;28;20053;-69
2021/07/14 01:02:12;;;;;;;16.95;9.52;;;;;;;13.89;100.00;99893.13;4979812;28;20522;-70
2021/07/14 01:05:10;;;;;;;12.45;8.05;;;;;;;13.84;100.00;99902.69;4980069;28;20130;-69
2021/07/14 01:08:28;;;;;;;9.02;6.75;;;;;;;13.75;100.00;99893.03;4979487;28;20053;-69
2021/07/14 01:11:14;;;;;;;14.02;7.35;;;;;;;13.72;100.00;99882.66;4966316;28;20049;-69
2021/07/14 01:14:09;;;;;;;19.08;9.38;;;;;;;13.82;100.00;99877.91;4965974;28;20045;-68
2021/07/14 01:17:02;;;;;;;13.52;8.90;;;;;;;13.80;100.00;99874.59;4966012;28;20124;-68
2021/07/14 01:20:04;;;;;;;17.33;9.30;;;;;;;13.89;100.00;99873.53;4965633;28;20053;-68
2021/07/14 01:23:09;;;;;;;15.05;9.00;;;;;;;13.91;100.00;99871.53;4953243;28;20108;-68
2021/07/14 01:26:04;;;;;;;15.82;9.07;;;;;;;13.91;100.00;99861.66;4979482;28;20049;-69
2021/07/14 01:28:49;;;;;;;11.43;8.63;;;;;;;13.90;100.00;99859.97;4979386;28;20470;-69
2021/07/14 01:31:35;;;;;;;12.30;8.95;;;;;;;13.93;100.00;99869.50;4979360;28;20526;-68
2021/07/14 01:34:21;;;;;;;17.08;9.57;;;;;;;13.91;100.00;99876.88;5022635;23;20084;-63
2021/07/14 01:37:06;;;;;;;15.45;9.27;;;;;;;13.93;100.00;99880.22;4998557;28;20172;-64
2021/07/14 01:39:52;;;;;;;17.83;9.88;;;;;;;13.98;100.00;99885.91;5013637;28;20454;-64
2021/07/14 01:42:36;;;;;;;13.93;9.57;;;;;;;13.96;100.00;99886.06;5012760;28;20044;-64
2021/07/14 01:45:21;;;;;;;15.07;8.98;;;;;;;13.91;100.00;99892.97;4997963;28;20099;-64
2021/07/14 01:48:05;;;;;;;15.27;9.38;;;;;;;13.91;100.00;99898.31;4999531;28;20130;-64
2021/07/14 01:50:50;;;;;;;18.55;10.57;;;;;;;13.93;100.00;99902.50;4985767;28;20053;-64
2021/07/14 01:53:35;;;;;;;19.55;10.15;;;;;;;13.95;100.00;99910.34;4985410;28;20579;-64
2021/07/14 01:56:21;;;;;;;14.38;9.63;;;;;;;13.98;100.00;99920.75;4985734;28;20045;-63
2021/07/14 01:59:06;;;;;;;18.52;9.70;;;;;;;13.99;100.00;99911.69;4999373;28;20470;-63
2021/07/14 02:01:52;;;;;;;16.90;9.60;;;;;;;14.00;100.00;99908.00;5000098;28;20099;-64
2021/07/14 02:04:38;;;;;;;16.30;10.10;;;;;;;13.97;100.00;99898.44;4998992;28;20046;-64
2021/07/14 02:07:26;;;;;;;14.00;9.50;;;;;;;14.00;100.00;99899.97;4985570;28;20056;-64
2021/07/14 02:10:10;;;;;;;13.32;8.30;;;;;;;14.02;100.00;99912.19;5000305;28;20049;-64
2021/07/14 02:12:54;;;;;;;13.80;9.45;;;;;;;14.00;100.00;99924.06;4998999;28;20045;-65
2021/07/14 02:15:40;;;;;;;13.48;9.60;;;;;;;14.03;100.00;99940.66;4999212;28;20081;-63
2021/07/14 02:18:26;;;;;;;17.95;9.10;;;;;;;14.12;100.00;99938.75;4985741;28;20053;-62
2021/07/14 02:21:10;;;;;;;14.43;9.02;;;;;;;14.10;100.00;99919.34;4985324;28;20097;-64
2021/07/14 02:23:54;;;;;;;17.85;9.20;;;;;;;14.06;100.00;99905.44;4985017;28;20422;-65
2021/07/14 02:26:40;;;;;;;16.00;8.70;;;;;;;14.04;100.00;99914.66;4998897;28;20053;-64
2021/07/14 02:29:24;;;;;;;12.68;8.93;;;;;;;14.03;100.00;99913.84;4998853;28;20196;-64
2021/07/14 02:32:13;;;;;;;17.02;9.30;;;;;;;14.10;100.00;99922.03;4985059;28;20049;-65
2021/07/14 02:34:57;;;;;;;13.70;8.07;;;;;;;14.12;100.00;99933.41;4998669;28;20129;-65
2021/07/14 02:38:04;;;;;;;13.48;8.63;;;;;;;14.12;100.00;99939.59;4985398;28;20509;-65
2021/07/14 02:40:57;;;;;;;21.40;8.68;;;;;;;14.18;100.00;99935.44;4984975;28;20100;-64
2021/07/14 02:43:44;;;;;;;14.88;8.30;;;;;;;14.20;100.00;99946.81;4998896;28;20104;-64
2021/07/14 02:46:33;;;;;;;13.50;7.70;;;;;;;14.24;100.00;99945.44;4998701;28;20053;-65
2021/07/14 02:49:20;;;;;;;11.38;7.53;;;;;;;14.24;100.00;99929.34;4984881;28;20049;-64
2021/07/14 02:52:07;;;;;;;8.80;7.68;;;;;;;14.23;100.00;99930.34;4999933;28;20133;-64
2021/07/14 02:54:52;;;;;;;15.20;8.32;;;;;;;14.22;100.00;99934.06;4985176;28;20072;-64
2021/07/14 02:57:38;;;;;;;12.32;7.75;;;;;;;14.23;100.00;99919.63;4994943;28;20104;-65
2021/07/14 03:00:23;;;;;;;11.85;7.93;;;;;;;14.20;100.00;99920.00;4982136;28;20048;-64
2021/07/14 03:03:08;;;;;;;9.40;7.15;;;;;;;14.17;100.00;99909.63;4968272;28;20152;-65
2021/07/14 03:05:55;;;;;;;11.45;7.40;;;;;;;14.17;100.00;99898.91;4995715;28;20085;-65
2021/07/14 03:08:43;;;;;;;10.50;7.15;;;;;;;14.18;100.00;99903.25;4981947;28;20089;-64
2021/07/14 03:11:27;;;;;;;7.70;6.90;;;;;;;14.13;100.00;99902.91;4995372;28;20053;-64
2021/07/14 03:14:11;;;;;;;14.18;7.28;;;;;;;14.13;100.00;99892.19;4996471;28;20074;-64
2021/07/14 03:16:56;;;;;;;15.05;7.65;;;;;;;14.12;100.00;99879.78;4981749;28;20057;-64
2021/07/14 03:19:40;;;;;;;18.13;8.23;;;;;;;14.08;100.00;99879.28;4995467;28;20050;-64
2021/07/14 03:22:25;;;;;;;11.63;7.78;;;;;;;13.99;100.00;99877.66;4981351;28;20073;-65
2021/07/14 03:25:11;;;;;;;16.52;7.68;;;;;;;14.00;100.00;99879.38;4995359;28;20049;-65
2021/07/14 03:27:55;;;;;;;13.27;7.80;;;;;;;13.99;100.00;99879.53;4996261;28;20053;-63
2021/07/14 03:30:39;;;;;;;11.68;7.50;;;;;;;14.01;100.00;99888.22;4996239;28;20566;-65
2021/07/14 03:33:24;;;;;;;11.85;7.80;;;;;;;13.98;100.00;99910.84;4994972;28;20053;-65
2021/07/14 03:36:08;;;;;;;12.85;7.93;;;;;;;14.01;100.00;99915.03;4995113;28;20069;-64
2021/07/14 03:38:53;;;;;;;14.32;8.88;;;;;;;13.99;100.00;99906.31;4994925;28;20188;-65
2021/07/14 03:41:38;;;;;;;11.93;8.85;;;;;;;13.98;100.00;99915.38;4981498;28;20049;-65
2021/07/14 03:44:22;;;;;;;11.13;8.48;;;;;;;13.99;100.00;99919.72;4994852;28;20057;-64
2021/07/14 03:47:07;;;;;;;15.85;9.70;;;;;;;13.98;100.00;99928.78;4981347;28;20097;-65
2021/07/14 03:49:52;;;;;;;19.10;10.05;;;;;;;14.04;100.00;99941.47;4981462;28;20134;-64
2021/07/14 03:52:37;;;;;;;13.57;10.23;;;;;;;14.04;100.00;99941.47;4995866;28;20168;-64
2021/07/14 03:55:21;;;;;;;21.55;10.30;;;;;;;14.08;100.00;99940.13;4980863;28;20081;-64
2021/07/14 03:58:05;;;;;;;16.65;10.82;;;;;;;14.12;100.00;99944.97;4981321;28;20133;-64
2021/07/14 04:00:49;;;;;;;15.93;10.85;;;;;;;14.12;100.00;99950.34;4981003;28;20412;-63
2021/07/14 04:03:34;;;;;;;16.40;11.43;;;;;;;14.18;100.00;99952.31;4995221;28;20093;-64
2021/07/14 04:06:19;;;;;;;21.13;11.68;;;;;;;14.23;100.00;99951.81;4980947;28;20184;-64
2021/07/14 04:09:23;;;;;;;24.83;12.02;;;;;;;14.27;100.00;99956.66;4979714;28;20196;-64
2021/07/14 04:12:08;;;;;;;17.90;11.57;;;;;;;14.28;100.00;99941.41;4980519;28;20109;-64
2021/07/14 04:14:51;;;;;;;20.20;11.90;;;;;;;14.31;100.00;99941.03;4995072;28;20430;-65
2021/07/14 04:17:36;;;;;;;17.38;11.93;;;;;;;14.34;100.00;99938.00;4980700;28;20570;-65
2021/07/14 04:20:20;;;;;;;17.25;12.48;;;;;;;14.29;100.00;99935.03;4995609;28;20092;-64
2021/07/14 04:23:04;;;;;;;19.30;12.93;;;;;;;14.34;100.00;99940.69;4980179;28;20126;-65
2021/07/14 04:25:47;;;;;;;18.38;12.20;;;;;;;14.34;100.00;99927.28;4980556;28;20438;-65
2021/07/14 04:28:33;;;;;;;;;;;;;;;14.33;100.00;99930.97;4981200;28;20105;-64
2021/07/14 04:31:17;;;;;;;24.30;12.80;;;;;;;14.34;100.00;99925.44;4995141;28;19920;-65
2021/07/14 04:34:02;;;;;;;19.35;12.45;;;;;;;14.36;100.00;99939.50;4979876;28;20180;-64
2021/07/14 04:36:46;;;;;;;21.15;12.90;;;;;;;14.39;100.00;99947.19;4980281;28;20061;-64
2021/07/14 04:39:30;;;;;;;17.33;13.35;;;;;;;14.40;100.00;99931.94;4966597;28;20089;-64
2021/07/14 04:42:14;;;;;;;19.55;13.75;;;;;;;14.41;100.00;99937.16;4980188;28;20068;-64
2021/07/14 04:44:58;;;;;;;20.70;12.23;;;;;;;14.47;100.00;99932.94;4994829;28;20053;-64
2021/07/14 04:47:42;;;;;;;19.90;11.60;;;;;;;14.50;100.00;99937.94;4966224;28;20185;-65
2021/07/14 04:50:26;;;;;;;16.73;12.40;;;;;;;14.56;100.00;99931.84;4994575;28;20049;-65
2021/07/14 04:53:09;;;;;;;16.00;11.88;;;;;;;14.60;100.00;99928.63;4966252;28;20407;-65
2021/07/14 04:55:53;;;;;;;15.32;11.52;;;;;;;14.62;100.00;99926.63;4979993;28;20097;-65
2021/07/14 04:58:37;;;;;;;14.73;11.52;;;;;;;14.61;100.00;99929.47;4994359;28;20130;-65
2021/07/14 05:01:21;;;;;;;23.10;11.07;;;;;;;14.62;100.00;99925.78;4994705;28;20101;-65
2021/07/14 05:04:05;;;;;;;14.65;10.95;;;;;;;14.62;100.00;99929.31;4994477;28;20169;-65
2021/07/14 05:06:49;;;;;;;15.60;10.52;;;;;;;14.63;100.00;99932.81;4994622;28;20049;-65
2021/07/14 05:09:33;;;;;;;16.88;11.48;;;;;;;14.70;100.00;99939.13;4994541;28;20093;-63
2021/07/14 05:12:17;;;;;;;14.55;10.27;;;;;;;14.70;100.00;99931.09;4979756;28;20104;-65
2021/07/14 05:15:02;;;;;;;16.58;11.38;;;;;;;14.78;100.00;99923.00;4994366;28;20085;-64
2021/07/14 05:17:46;;;;;;;22.60;9.85;;;;;;;14.77;100.00;99908.72;4979696;28;20053;-65
2021/07/14 05:20:29;;;;;;;11.65;9.20;;;;;;;14.81;100.00;99909.19;4992702;28;20049;-64
2021/07/14 05:23:14;;;;;;;16.60;9.93;;;;;;;14.86;100.00;99896.06;4994052;28;20057;-63
2021/07/14 05:25:58;;;;;;;12.60;9.32;;;;;;;14.92;100.00;99900.72;4993526;28;20061;-65
2021/07/14 05:28:42;;;;;;;11.43;8.65;;;;;;;14.98;100.00;99910.75;4993202;28;20134;-64
2021/07/14 05:31:26;;;;;;;13.13;9.25;;;;;;;15.06;100.00;99910.66;4993101;28;20069;-63
2021/07/14 05:34:10;;;;;;;19.58;9.73;;;;;;;15.15;100.00;99901.50;4993859;28;20097;-64
2021/07/14 05:36:54;;;;;;;14.07;8.93;;;;;;;15.04;100.00;99893.91;4994444;28;20069;-64
2021/07/14 05:39:38;;;;;;;11.48;9.30;;;;;;;15.17;100.00;99892.28;4994002;28;20510;-62
2021/07/14 05:42:22;;;;;;;16.98;9.07;;;;;;;15.16;100.00;99895.13;4994038;28;20049;-64
2021/07/14 05:45:07;;;;;;;15.70;8.48;;;;;;;15.22;100.00;99899.78;4994026;28;20498;-64
2021/07/14 05:47:51;;;;;;;14.35;7.65;;;;;;;15.22;100.00;99902.47;4993978;28;20052;-64
2021/07/14 05:50:35;;;;;;;15.05;7.88;;;;;;;15.23;100.00;99904.13;4979314;28;20045;-64
2021/07/14 05:53:19;;;;;;;11.20;7.55;;;;;;;15.20;100.00;99904.50;4993922;28;20045;-64
2021/07/14 05:56:03;;;;;;;11.68;7.60;;;;;;;15.29;100.00;99893.50;4994064;28;20188;-65
2021/07/14 05:58:47;;;;;;;14.00;7.47;;;;;;;15.42;100.00;99892.91;4992659;28;20084;-65
2021/07/14 06:01:31;;;;;;;11.63;7.43;;;;;;;15.40;100.00;99894.94;4994097;28;20537;-64
2021/07/14 06:04:15;;;;;;;11.13;7.05;;;;;;;15.47;100.00;99891.31;4978977;28;20100;-65
2021/07/14 06:06:59;;;;;;;11.68;6.68;;;;;;;15.51;100.00;99902.53;4992835;28;20049;-65
2021/07/14 06:09:44;;;;;;;14.00;6.35;;;;;;;15.58;100.00;99898.94;4993573;28;20045;-65
2021/07/14 06:12:28;;;;;;;9.40;6.13;;;;;;;15.52;100.00;99904.22;4993543;28;20077;-65
2021/07/14 06:15:12;;;;;;;9.10;6.75;;;;;;;15.61;100.00;99913.84;4978946;28;20053;-65
2021/07/14 06:17:56;;;;;;;13.75;6.80;;;;;;;15.59;100.00;99911.34;4978744;28;20169;-65
2021/07/14 06:20:41;;;;;;;10.27;6.15;;;;;;;15.67;100.00;99908.56;4978843;28;20086;-65
2021/07/14 06:23:25;;;;;;;9.77;5.88;;;;;;;15.71;100.00;99910.69;4978714;28;20058;-65
2021/07/14 06:26:09;;;;;;;8.98;5.72;;;;;;;15.67;100.00;99914.75;4992753;28;20125;-65
2021/07/14 06:28:53;;;;;;;12.50;6.13;;;;;;;15.76;100.00;99910.97;4992745;28;20053;-65
2021/07/14 06:31:37;;;;;;;11.27;5.65;;;;;;;15.82;100.00;99918.31;4980971;28;20403;-65
2021/07/14 06:34:21;;;;;;;8.10;5.40;;;;;;;15.98;100.00;99912.72;4997390;28;20076;-65
2021/07/14 06:37:06;;;;;;;12.23;5.53;;;;;;;15.89;100.00;99924.59;4982929;28;20406;-65
2021/07/14 06:39:50;;;;;;;9.90;5.40;;;;;;;16.08;100.00;99920.50;4996509;28;20052;-65
2021/07/14 06:42:34;;;;;;;8.15;5.32;;;;;;;16.09;100.00;99931.06;4997411;28;20049;-65
2021/07/14 06:45:20;;;;;;;7.72;4.70;;;;;;;16.08;100.00;99934.75;4997252;28;20434;-65
2021/07/14 06:48:04;;;;;;;9.73;4.82;;;;;;;16.05;100.00;99924.41;4982091;28;20053;-65
2021/07/14 06:50:48;;;;;;;9.75;5.25;;;;;;;16.13;100.00;99927.00;4995806;28;20570;-65
2021/07/14 06:53:33;;;;;;;11.30;4.35;;;;;;;16.13;100.00;99924.31;4997114;28;20093;-65
2021/07/14 06:56:17;;;;;;;5.65;4.60;;;;;;;16.24;100.00;99929.19;4996938;28;20137;-65
2021/07/14 06:59:01;;;;;;;6.00;4.40;;;;;;;16.27;100.00;99928.81;4995688;28;20057;-63
2021/07/14 07:01:45;;;;;;;5.45;4.32;;;;;;;16.31;100.00;99927.44;4997063;28;20069;-65
2021/07/14 07:04:31;;;;;;;8.48;4.53;;;;;;;16.34;100.00;99929.72;4995351;28;20045;-65
2021/07/14 07:07:15;;;;;;;5.15;4.10;;;;;;;16.38;100.00;99931.03;4995685;28;20133;-64
2021/07/14 07:09:59;;;;;;;9.90;4.65;;;;;;;16.36;100.00;99941.16;4982206;28;20099;-65
2021/07/14 07:12:43;;;;;;;6.38;4.53;;;;;;;16.41;100.00;99941.44;4995556;28;20423;-66
2021/07/14 07:15:27;;;;;;;5.22;3.72;;;;;;;16.34;100.00;99935.13;4981709;28;20049;-65
2021/07/14 07:18:11;;;;;;;5.03;4.05;;;;;;;16.43;100.00;99941.22;4981635;28;20129;-65
2021/07/14 07:20:57;;;;;;;5.13;3.70;;;;;;;16.48;100.00;99945.03;4995422;28;20089;-64
2021/07/14 07:23:41;;;;;;;8.55;4.63;;;;;;;16.57;100.00;99937.69;4981383;28;20086;-65
2021/07/14 07:26:26;;;;;;;5.50;4.18;;;;;;;16.63;100.00;99945.84;4981900;28;20046;-65
2021/07/14 07:29:11;;;;;;;6.70;4.15;;;;;;;16.74;100.00;99947.16;4996090;28;20511;-65
2021/07/14 07:31:55;;;;;;;9.27;4.75;;;;;;;16.71;100.00;99937.66;4967619;28;20085;-65
2021/07/14 07:34:38;;;;;;;6.75;3.58;;;;;;;16.71;100.00;99942.19;5026667;23;20052;-69
2021/07/14 07:37:22;;;;;;;8.65;4.60;;;;;;;16.82;100.00;99945.22;5015964;28;20056;-69
2021/07/14 07:40:07;;;;;;;12.13;4.38;;;;;;;16.82;100.00;99933.59;5015647;28;20108;-69
2021/07/14 07:42:51;;;;;;;5.85;4.18;;;;;;;16.69;100.00;99942.34;5000285;28;20577;-68
2021/07/14 07:45:35;;;;;;;6.22;4.35;;;;;;;16.73;100.00;99938.28;5000495;28;20056;-69
2021/07/14 07:48:20;;;;;;;8.38;4.35;;;;;;;16.73;100.00;99932.91;5000706;28;20048;-68
2021/07/14 07:51:07;;;;;;;11.30;4.25;;;;;;;16.68;100.00;99938.00;5000402;28;20052;-67
2021/07/14 07:53:53;;;;;;;7.65;4.40;;;;;;;16.63;100.00;99929.69;5015277;28;20048;-69
2021/07/14 07:56:37;;;;;;;10.25;4.45;;;;;;;16.71;100.00;99934.09;5000748;28;20049;-69
2021/07/14 07:59:21;;;;;;;7.30;4.07;;;;;;;16.67;100.00;99928.25;5000622;28;20060;-69
2021/07/14 08:02:06;;;;;;;5.63;4.43;;;;;;;16.65;100.00;99924.94;5015441;28;20188;-69
2021/07/14 08:04:50;;;;;;;8.30;4.20;;;;;;;16.67;100.00;99920.19;4986374;28;20041;-69
2021/07/14 08:07:34;;;;;;;4.88;4.38;;;;;;;16.64;100.00;99928.66;5015111;28;20073;-67
2021/07/14 08:10:18;;;;;;;5.68;4.72;;;;;;;16.76;100.00;99943.28;5000380;28;20107;-69
2021/07/14 08:13:03;;;;;;;4.88;4.20;;;;;;;16.82;100.00;99947.91;4986635;28;20045;-69
2021/07/14 08:15:47;;;;;;;6.15;4.30;;;;;;;16.87;100.00;99948.16;4999375;28;20060;-68
2021/07/14 08:18:31;;;;;;;9.63;4.82;;;;;;;16.99;100.00;99951.19;4986054;28;20139;-69
2021/07/14 08:21:15;;;;;;;10.05;5.07;;;;;;;17.11;100.00;99947.75;4999745;28;20076;-69
2021/07/14 08:23:59;;;;;;;5.65;3.90;;;;;;;17.25;100.00;99963.03;5014364;28;20049;-69
2021/07/14 08:26:43;;;;;;;5.97;4.07;;;;;;;17.30;100.00;99963.25;4999741;28;20044;-69
2021/07/14 08:29:27;;;;;;;8.13;4.30;;;;;;;17.22;100.00;99968.81;4999912;28;20052;-69
2021/07/14 08:32:11;;;;;;;5.38;3.85;;;;;;;17.27;100.00;99970.88;4999863;28;20407;-69
2021/07/14 08:34:55;;;;;;;7.60;3.95;;;;;;;17.27;100.00;99976.28;4999470;28;20041;-69
2021/07/14 08:37:39;;;;;;;6.97;3.80;;;;;;;17.32;100.00;99974.66;4999469;28;20419;-68
2021/07/14 08:40:24;;;;;;;5.82;4.05;;;;;;;17.41;100.00;99983.50;4999311;28;20052;-69
2021/07/14 08:43:09;;;;;;;7.15;4.22;;;;;;;17.43;100.00;99981.44;4999276;28;20049;-69
2021/07/14 08:45:56;;;;;;;7.70;4.43;;;;;;;17.39;100.00;99989.06;4985836;28;20079;-67
2021/07/14 08:48:40;;;;;;;6.00;4.30;;;;;;;17.39;100.00;99991.78;4985905;28;20108;-69
2021/07/14 08:51:25;;;;;;;5.75;4.13;;;;;;;17.33;100.00;99981.75;4999206;28;20057;-69
2021/07/14 08:54:09;;;;;;;5.00;3.92;;;;;;;17.22;100.00;99989.50;4999142;28;20092;-68
2021/07/14 08:56:53;;;;;;;6.30;3.95;;;;;;;17.19;100.00;99985.34;4999737;28;20052;-69
2021/07/14 08:59:37;;;;;;;7.65;4.28;;;;;;;17.12;100.00;99976.38;4999439;28;20529;-69
2021/07/14 09:02:21;;;;;;;6.65;4.47;;;;;;;16.87;100.00;99985.84;4999095;28;20533;-68
2021/07/14 09:05:05;;;;;;;5.72;4.47;;;;;;;16.79;100.00;99985.13;4999361;28;20569;-69
2021/07/14 09:07:50;;;;;;;8.82;4.25;;;;;;;16.77;100.00;99988.00;4999269;28;20045;-68
2021/07/14 09:10:34;;;;;;;5.82;4.18;;;;;;;16.71;100.00;99985.25;4999198;28;20053;-68
2021/07/14 09:13:35;;;;;;;7.57;5.28;;;;;;;16.70;100.00;99995.16;4999294;28;20052;-69
2021/07/14 09:16:35;;;;;;;7.22;4.90;;;;;;;16.69;100.00;99990.81;4985481;28;20052;-69
2021/07/14 09:19:27;;;;;;;8.18;5.30;;;;;;;16.72;100.00;99984.22;4998999;28;20127;-69
2021/07/14 09:22:32;;;;;;;5.65;4.97;;;;;;;16.74;100.00;99983.00;4985613;28;20052;-69
2021/07/14 09:25:17;;;;;;;10.73;5.78;;;;;;;16.89;100.00;99983.78;4999198;28;20103;-68
2021/07/14 09:28:05;;;;;;;11.27;5.82;;;;;;;16.92;100.00;99978.03;4985315;28;20103;-69
2021/07/14 09:31:00;;;;;;;5.68;5.07;;;;;;;16.96;100.00;99986.53;4985547;28;20466;-69
2021/07/14 09:33:45;;;;;;;7.05;5.18;;;;;;;16.89;100.00;99991.88;4998816;28;20060;-69
2021/07/14 09:36:33;;;;;;;6.22;5.10;;;;;;;16.79;100.00;99996.72;4984849;28;20096;-69
2021/07/14 09:39:38;;;;;;;7.70;5.75;;;;;;;16.81;100.00;99993.84;4985071;28;20044;-69
2021/07/14 09:42:28;;;;;;;8.32;6.00;;;;;;;16.92;100.00;99991.50;4984955;28;20049;-69
2021/07/14 09:45:12;;;;;;;7.07;5.82;;;;;;;16.92;100.00;99994.19;4998745;28;20141;-69
2021/07/14 09:47:59;;;;;;;8.05;5.43;;;;;;;16.92;100.00;99994.19;4998842;28;20061;-69
2021/07/14 09:50:51;;;;;;;9.85;5.22;;;;;;;16.93;100.00;99998.56;4998811;28;20048;-68
2021/07/14 09:53:36;;;;;;;8.30;6.15;;;;;;;17.00;100.00;100002.13;5013600;28;20100;-68
2021/07/14 09:56:27;;;;;;;11.60;6.22;;;;;;;17.10;100.00;100007.22;5013333;28;20525;-69
2021/07/14 09:59:12;;;;;;;10.40;6.05;;;;;;;17.16;100.00;100009.13;4998935;28;20048;-69
2021/07/14 10:01:57;;;;;;;9.15;5.85;;;;;;;17.19;100.00;100020.34;5013545;28;20049;-69
2021/07/14 10:04:42;;;;;;;8.88;5.70;;;;;;;17.23;100.00;100018.97;4998467;28;20100;-69
2021/07/14 10:07:30;;;;;;;9.55;5.22;;;;;;;17.17;100.00;100008.09;4988963;28;20052;-69
2021/07/14 10:10:14;;;;;;;8.02;6.15;;;;;;;17.25;100.00;100018.75;5002807;28;20056;-69
2021/07/14 10:13:06;;;;;;;6.22;5.53;;;;;;;17.23;100.00;100024.34;5002390;28;20064;-68
2021/07/14 10:16:00;;;;;;;6.28;5.38;;;;;;;17.33;100.00;100024.88;4988446;28;20180;-69
2021/07/14 10:19:06;;;;;;;11.00;5.55;;;;;;;17.39;100.00;100034.88;5002365;28;20410;-68
2021/07/14 10:21:51;;;;;;;8.05;5.55;;;;;;;17.39;100.00;100034.06;5002277;28;20104;-69
2021/07/14 10:24:35;;;;;;;7.00;5.22;;;;;;;17.51;100.00;100038.72;5002221;28;20057;-69
2021/07/14 10:27:19;;;;;;;7.28;4.80;;;;;;;17.59;100.00;100040.47;5002238;28;20057;-69
2021/07/14 10:30:04;;;;;;;6.80;4.72;;;;;;;17.56;100.00;100043.53;5001930;28;20176;-69
2021/07/14 10:32:48;;;;;;;7.85;5.05;;;;;;;17.74;100.00;100054.69;5001922;28;20068;-69
2021/07/14 10:35:38;;;;;;;7.35;4.97;;;;;;;17.76;100.00;100053.47;5001921;28;20522;-69
2021/07/14 10:38:25;;;;;;;5.80;4.50;;;;;;;17.56;100.00;100057.00;4988370;28;20044;-69
2021/07/14 10:41:10;;;;;;;8.85;5.30;;;;;;;17.56;100.00;100049.78;5001964;28;20057;-69
2021/07/14 10:43:55;;;;;;;6.57;4.68;;;;;;;17.62;100.00;100051.66;5016658;28;20112;-69
2021/07/14 10:46:39;;;;;;;5.03;4.38;;;;;;;17.47;100.00;100048.22;5001662;28;20057;-69
2021/07/14 10:49:24;;;;;;;6.43;5.25;;;;;;;17.45;100.00;100050.28;4988104;28;20049;-69
2021/07/14 10:52:09;;;;;;;6.95;4.97;;;;;;;17.52;100.00;100039.56;5001988;28;20048;-69
2021/07/14 10:54:53;;;;;;;6.03;4.72;;;;;;;17.51;100.00;100041.41;4987891;28;20411;-69
2021/07/14 10:57:38;;;;;;;7.00;4.93;;;;;;;17.57;100.00;100037.09;5016767;28;20518;-68
2021/07/14 11:00:22;;;;;;;5.85;4.95;;;;;;;17.57;100.00;100034.41;5001286;28;20144;-69
2021/07/14 11:03:06;;;;;;;6.07;5.05;;;;;;;17.60;100.00;100025.97;5016886;28;20048;-68
2021/07/14 11:05:50;;;;;;;9.60;5.20;;;;;;;17.62;100.00;100027.41;5001234;28;20100;-68
2021/07/14 11:08:50;;;;;;;6.45;5.22;;;;;;;17.59;100.00;100018.91;4987726;28;20045;-69
2021/07/14 11:11:55;;;;;;;6.55;4.95;;;;;;;17.62;100.00;100011.25;5001516;28;20100;-66
2021/07/14 11:14:41;;;;;;;7.80;5.13;;;;;;;17.80;100.00;100011.59;5001094;28;20068;-68
2021/07/14 11:17:29;;;;;;;6.07;4.80;;;;;;;17.89;100.00;100010.41;5000711;28;20100;-69
2021/07/14 11:20:14;;;;;;;9.20;4.88;;;;;;;18.03;100.00;100005.94;5016011;28;20458;-68
2021/07/14 11:23:15;;;;;;;8.57;5.25;;;;;;;18.19;100.00;100001.06;5015948;28;20057;-68
2021/07/14 11:26:02;;;;;;;5.38;4.18;;;;;;;18.15;100.00;100002.50;5001048;28;20076;-68
2021/07/14 11:29:12;;;;;;;4.90;4.40;;;;;;;18.21;100.00;100003.56;4987086;28;20434;-68
2021/07/14 11:31:56;;;;;;;6.25;4.90;;;;;;;18.21;100.00;99999.00;5000740;28;20095;-69
2021/07/14 11:34:57;;;;;;;8.23;4.22;;;;;;;18.45;100.00;100003.94;5000736;28;20048;-67
2021/07/14 11:37:54;;;;;;;5.88;3.90;;;;;;;18.27;100.00;100014.41;5000894;28;20124;-68
2021/07/14 11:40:40;;;;;;;4.72;3.80;;;;;;;18.20;100.00;100005.44;5015214;28;20040;-69
2021/07/14 11:43:30;;;;;;;6.85;3.67;;;;;;;18.32;100.00;100006.56;5000541;28;20100;-69
2021/07/14 11:46:15;;;;;;;17.05;3.80;;;;;;;18.32;100.00;100003.84;5000737;28;20048;-69
2021/07/14 11:49:06;;;;;;;4.78;3.50;;;;;;;18.42;100.00;100001.63;5015347;28;20099;-69
2021/07/14 11:51:49;;;;;;;8.18;3.53;;;;;;;18.54;100.00;100002.72;5000744;28;20187;-68
2021/07/14 11:54:33;;;;;;;7.38;3.67;;;;;;;18.86;100.00;99994.75;5015660;28;20407;-69
2021/07/14 11:57:40;;;;;;;8.02;3.28;;;;;;;19.00;100.00;99996.41;4986683;28;20156;-68
2021/07/14 12:00:35;;;;;;;3.33;3.03;;;;;;;19.21;100.00;100003.56;5000351;28;20104;-69
2021/07/14 12:03:21;;;;;;;3.50;2.83;;;;;;;19.47;100.00;100004.44;4986309;28;20526;-69
2021/07/14 12:06:43;;;;;;;6.30;2.88;;;;;;;19.90;100.00;100007.53;5000192;28;20101;-69
2021/07/14 12:09:29;;;;;;;2.95;2.63;;;;;;;19.58;98.93;100008.41;5015216;28;20053;-68
2021/07/14 12:12:20;;;;;;;6.68;2.90;;;;;;;19.75;100.00;100006.91;4986389;28;20631;-69
2021/07/14 12:15:05;;;;;;;5.95;3.05;;;;;;;19.86;99.98;99998.16;4999930;28;20225;-69
2021/07/14 12:17:50;;;;;;;3.70;2.65;;;;;;;19.71;95.67;99992.16;5015398;28;20053;-69
2021/07/14 12:20:33;;;;;;;4.78;2.70;;;;;;;19.51;95.68;99992.16;4986389;28;20127;-69
2021/07/14 12:23:18;;;;;;;;;;;;;;;19.78;95.22;100003.81;5000301;28;20053;-69
2021/07/14 12:26:02;;;;;;;2.40;2.20;;;;;;;20.03;93.25;100004.81;4986443;28;19955;-69
2021/07/14 12:28:46;;;;;;;3.15;2.40;;;;;;;19.76;91.34;100008.59;4999366;28;20135;-69
2021/07/14 12:31:30;;;;;;;3.65;2.25;;;;;;;20.10;92.25;100006.50;4999548;28;20196;-68
2021/07/14 12:34:23;;;;;;;4.72;2.50;;;;;;;20.38;91.36;100004.34;5014173;28;20044;-69
2021/07/14 12:37:08;;;;;;;2.33;2.13;;;;;;;20.35;90.76;99993.09;4999816;28;20049;-69
2021/07/14 12:39:51;;;;;;;2.60;2.30;;;;;;;20.56;86.59;99979.28;4999554;28;20451;-69
2021/07/14 12:42:43;;;;;;;4.38;2.30;;;;;;;20.78;86.82;99986.03;4985719;28;20081;-69
2021/07/14 12:45:32;;;;;;;2.10;1.90;;;;;;;20.73;83.13;99994.00;4985570;28;20076;-69
2021/07/14 12:48:21;;;;;;;3.35;2.13;;;;;;;20.79;83.42;99990.41;4999650;28;20053;-69
2021/07/14 12:51:05;;;;;;;3.25;2.00;;;;;;;21.01;83.29;99980.97;4999982;28;20095;-69
2021/07/14 12:53:58;;;;;;;3.72;2.15;;;;;;;21.14;80.27;99986.28;4985470;28;20052;-69